KCAR/CAR METAR and TAF weather

Enter ICAO airport designator
Station Type Date Time Source
KCAR METAR 2021/02/24 17:54 UTC NOAA

KCAR 241754Z AUTO 26008KT 10SM BKN042 04/M04 A2966 RMK AO2 SLP053 T00441044 10050 21028 58007


Station Type Date Time Source
KCAR Decoded METAR 2021/02/24 17:54 UTC NOAA

CARIBOU MUNICIPAL AIRPORT, ME, United States (KCAR) 46-52N 68-01W 191M
Feb 24, 2021 - 12:54 PM EST / 2021.02.24 1754 UTC
Wind: from the W (260 degrees) at 9 MPH (8 KT):0
Visibility: 10 mile(s):0
Sky conditions: mostly cloudy
Temperature: 39.9 F (4.4 C)
Dew Point: 24.1 F (-4.4 C)
Relative Humidity: 52%
Pressure (altimeter): 29.66 in. Hg (1004 hPa)
Pressure tendency: 0.02 inches (0.7 hPa) lower than three hours ago
ob: KCAR 241754Z AUTO 26008KT 10SM BKN042 04/M04 A2966 RMK AO2 SLP053 T00441044 10050 21028 58007
cycle: 18

Station Type Date Time Source
KCAR TAF 2021/02/24 18:45 UTC NOAA

TAF KCAR 241743Z 2418/2518 26008KT P6SM BKN040
FM250200 VRB05KT P6SM VCSH OVC045
FM250400 VRB03KT 3SM -SN OVC025
FM250800 33009KT 1SM -SN BKN015
FM251200 32013G22KT 5SM BLSN VCSH BKN050

Example: see airport list